createdAt,value
2022-11-17T00:00:35.210Z,98.52
2022-11-17T00:01:35.488Z,98.56
2022-11-17T00:02:35.285Z,98.46
2022-11-17T00:03:35.414Z,98.25
2022-11-17T00:04:35.175Z,98.25
2022-11-17T00:05:36.622Z,97.94
2022-11-17T00:06:35.291Z,98.05
2022-11-17T00:07:35.144Z,98.05
2022-11-17T00:08:35.148Z,98.05
2022-11-17T00:09:35.099Z,97.74
2022-11-17T00:10:35.151Z,97.69
2022-11-17T00:11:35.683Z,97.89
2022-11-17T00:12:35.101Z,97.89
2022-11-17T00:13:35.380Z,98.10
2022-11-17T00:14:35.051Z,97.84
2022-11-17T00:15:35.385Z,97.84
2022-11-17T00:16:35.043Z,97.84
2022-11-17T00:17:35.286Z,97.84
2022-11-17T00:18:35.013Z,98.00
2022-11-17T00:19:34.951Z,97.89
2022-11-17T00:20:34.974Z,97.94
2022-11-17T00:21:35.016Z,97.89
2022-11-17T00:22:34.942Z,98.05
2022-11-17T00:23:35.280Z,98.05
2022-11-17T00:24:34.888Z,98.15
2022-11-17T00:25:34.882Z,98.25
2022-11-17T00:26:34.905Z,98.25
2022-11-17T00:27:35.791Z,98.25
2022-11-17T00:28:34.885Z,98.25
2022-11-17T00:29:39.046Z,98.15
2022-11-17T00:30:36.013Z,98.05
2022-11-17T00:31:34.898Z,98.15
2022-11-17T00:32:34.794Z,98.31
2022-11-17T00:33:35.047Z,98.25
2022-11-17T00:34:34.794Z,98.31
2022-11-17T00:35:34.773Z,98.25
2022-11-17T00:36:35.363Z,98.35
2022-11-17T00:37:34.816Z,98.41
2022-11-17T00:38:34.747Z,98.56
2022-11-17T00:39:34.798Z,98.56
2022-11-17T00:40:34.814Z,98.56
2022-11-17T00:41:34.666Z,98.46
2022-11-17T00:42:34.709Z,98.35
2022-11-17T00:43:35.401Z,98.35
2022-11-17T00:44:34.669Z,98.41
2022-11-17T00:45:35.599Z,98.46
2022-11-17T00:46:34.675Z,98.31
2022-11-17T00:47:34.659Z,98.46
2022-11-17T00:48:35.827Z,98.56
2022-11-17T00:49:34.756Z,98.66
2022-11-17T00:50:34.649Z,98.46
2022-11-17T00:51:34.568Z,98.52
2022-11-17T00:52:36.008Z,98.62
2022-11-17T00:53:35.055Z,98.52
2022-11-17T00:54:34.517Z,98.52
2022-11-17T00:55:35.713Z,98.62
2022-11-17T00:56:34.745Z,98.62
2022-11-17T00:57:34.488Z,98.52
2022-11-17T00:58:34.528Z,98.56
2022-11-17T00:59:34.459Z,98.62
2022-11-17T01:00:34.860Z,98.35
2022-11-17T01:01:34.501Z,98.10
2022-11-17T01:02:34.417Z,98.10
2022-11-17T01:03:34.728Z,98.21
2022-11-17T01:04:34.401Z,98.10
2022-11-17T01:05:34.389Z,97.89
2022-11-17T01:06:34.471Z,98.00
2022-11-17T01:07:34.402Z,98.00
2022-11-17T01:08:34.335Z,97.89
2022-11-17T01:09:34.321Z,97.89
2022-11-17T01:10:34.321Z,97.79
2022-11-17T01:11:34.288Z,97.89
2022-11-17T01:12:34.288Z,97.69
2022-11-17T01:13:34.626Z,97.79
2022-11-17T01:14:34.301Z,97.79
2022-11-17T01:15:34.290Z,97.79
2022-11-17T01:16:34.298Z,97.49
2022-11-17T01:17:34.234Z,97.38
2022-11-17T01:18:34.278Z,97.38
2022-11-17T01:19:35.407Z,97.28
2022-11-17T01:20:34.342Z,97.38
2022-11-17T01:21:34.195Z,97.38
2022-11-17T01:22:34.196Z,97.38
2022-11-17T01:23:34.553Z,97.49
2022-11-17T01:24:34.237Z,97.38
2022-11-17T01:25:34.143Z,97.38
2022-11-17T01:26:34.366Z,97.17
2022-11-17T01:27:34.172Z,97.17
2022-11-17T01:28:34.146Z,97.28
2022-11-17T01:29:34.252Z,97.28
2022-11-17T01:30:34.073Z,97.17
2022-11-17T01:31:34.063Z,97.38
2022-11-17T01:32:34.054Z,97.17
2022-11-17T01:33:35.622Z,97.28
2022-11-17T01:34:34.147Z,97.17
2022-11-17T01:35:34.144Z,97.17
2022-11-17T01:36:34.165Z,97.17
2022-11-17T01:37:34.044Z,97.07
2022-11-17T01:38:33.993Z,97.17
2022-11-17T01:39:33.971Z,97.28
2022-11-17T01:40:34.065Z,97.49
2022-11-17T01:41:33.994Z,97.38
2022-11-17T01:42:33.936Z,97.28
2022-11-17T01:43:34.275Z,97.28
2022-11-17T01:44:33.896Z,97.38
2022-11-17T01:45:35.086Z,97.49
2022-11-17T01:46:33.895Z,97.28
2022-11-17T01:47:34.766Z,97.38
2022-11-17T01:48:33.964Z,97.28
2022-11-17T01:49:33.942Z,97.28
2022-11-17T01:50:34.108Z,97.38
2022-11-17T01:51:33.840Z,97.17
2022-11-17T01:52:33.799Z,97.07
2022-11-17T01:53:34.070Z,97.17
2022-11-17T01:54:33.756Z,96.97
2022-11-17T01:55:33.760Z,96.97
2022-11-17T01:56:33.766Z,97.17
2022-11-17T01:57:33.740Z,96.97
2022-11-17T01:58:33.747Z,96.97
2022-11-17T01:59:33.731Z,96.86
2022-11-17T02:00:33.727Z,96.97
2022-11-17T02:01:33.732Z,96.76
2022-11-17T02:02:33.700Z,96.76
2022-11-17T02:03:34.008Z,96.66
2022-11-17T02:04:33.775Z,96.66
2022-11-17T02:05:33.661Z,96.55
2022-11-17T02:06:33.607Z,96.66
2022-11-17T02:07:33.710Z,96.55
2022-11-17T02:08:33.623Z,96.45
2022-11-17T02:09:33.645Z,96.66
2022-11-17T02:10:33.602Z,96.34
2022-11-17T02:11:34.446Z,96.55
2022-11-17T02:12:33.581Z,96.45
2022-11-17T02:13:33.819Z,96.45
2022-11-17T02:14:34.738Z,96.76
2022-11-17T02:15:33.771Z,96.66
2022-11-17T02:16:34.111Z,96.45
2022-11-17T02:17:33.707Z,96.55
2022-11-17T02:18:33.439Z,96.45
2022-11-17T02:19:33.511Z,96.86
2022-11-17T02:20:33.501Z,96.86
2022-11-17T02:21:33.579Z,97.07
2022-11-17T02:22:33.439Z,97.17
2022-11-17T02:23:33.850Z,97.22
2022-11-17T02:24:34.294Z,97.32
2022-11-17T02:25:33.391Z,97.42
2022-11-17T02:26:33.365Z,97.22
2022-11-17T02:27:33.356Z,97.22
2022-11-17T02:28:33.331Z,97.32
2022-11-17T02:29:33.356Z,97.42
2022-11-17T02:30:34.219Z,97.53
2022-11-17T02:31:33.312Z,97.42
2022-11-17T02:32:33.281Z,97.53
2022-11-17T02:33:33.731Z,97.63
2022-11-17T02:34:34.374Z,97.63
2022-11-17T02:35:33.306Z,97.53
2022-11-17T02:36:33.342Z,97.63
2022-11-17T02:37:33.224Z,97.42
2022-11-17T02:38:33.322Z,97.53
2022-11-17T02:39:33.214Z,97.53
2022-11-17T02:40:33.237Z,97.63
2022-11-17T02:41:33.351Z,97.42
2022-11-17T02:42:33.150Z,97.42
2022-11-17T02:43:34.474Z,97.42
2022-11-17T02:44:33.134Z,97.32
2022-11-17T02:45:33.120Z,97.22
2022-11-17T02:46:33.111Z,97.32
2022-11-17T02:47:33.114Z,97.22
2022-11-17T02:48:33.281Z,96.91
2022-11-17T02:49:33.094Z,97.11
2022-11-17T02:50:33.139Z,97.11
2022-11-17T02:51:33.047Z,97.32
2022-11-17T02:52:33.050Z,97.01
2022-11-17T02:53:33.423Z,97.22
2022-11-17T02:54:33.061Z,97.22
2022-11-17T02:55:33.029Z,97.42
2022-11-17T02:56:33.015Z,97.32
2022-11-17T02:57:32.995Z,97.16
2022-11-17T02:58:33.691Z,97.36
2022-11-17T02:59:32.960Z,97.36
2022-11-17T03:00:33.026Z,97.36
2022-11-17T03:01:32.912Z,97.57
2022-11-17T03:02:32.904Z,97.57
2022-11-17T03:03:33.118Z,97.67
2022-11-17T03:04:32.940Z,97.47
2022-11-17T03:05:32.937Z,97.47
2022-11-17T03:06:33.802Z,97.47
2022-11-17T03:07:33.174Z,97.57
2022-11-17T03:08:33.654Z,97.57
2022-11-17T03:09:33.177Z,97.57
2022-11-17T03:10:32.834Z,97.67
2022-11-17T03:11:33.875Z,97.47
2022-11-17T03:12:32.798Z,97.26
2022-11-17T03:13:33.100Z,97.16
2022-11-17T03:14:33.584Z,96.95
2022-11-17T03:15:33.485Z,97.06
2022-11-17T03:16:32.896Z,97.26
2022-11-17T03:17:33.808Z,97.36
2022-11-17T03:18:32.822Z,97.06
2022-11-17T03:19:32.685Z,96.95
2022-11-17T03:20:32.738Z,96.95
2022-11-17T03:21:33.425Z,96.95
2022-11-17T03:22:33.148Z,96.75
2022-11-17T03:23:32.678Z,96.85
2022-11-17T03:24:32.603Z,96.85
2022-11-17T03:25:32.789Z,96.75
2022-11-17T03:26:32.651Z,96.85
2022-11-17T03:27:32.588Z,96.85
2022-11-17T03:28:32.711Z,96.75
2022-11-17T03:29:32.552Z,96.75
2022-11-17T03:30:37.295Z,96.95
2022-11-17T03:31:33.638Z,96.95
2022-11-17T03:32:32.507Z,96.64
2022-11-17T03:33:33.639Z,96.75
2022-11-17T03:34:32.502Z,96.85
2022-11-17T03:35:33.464Z,96.95
2022-11-17T03:36:32.691Z,96.75
2022-11-17T03:37:32.548Z,96.54
2022-11-17T03:38:32.591Z,96.75
2022-11-17T03:39:32.529Z,96.64
2022-11-17T03:40:32.589Z,96.64
2022-11-17T03:41:32.476Z,96.54
2022-11-17T03:42:32.380Z,96.64
2022-11-17T03:43:32.846Z,96.44
2022-11-17T03:44:32.392Z,96.33
2022-11-17T03:45:32.376Z,96.12
2022-11-17T03:46:32.360Z,96.33
2022-11-17T03:47:32.963Z,96.33
2022-11-17T03:48:32.327Z,96.44
2022-11-17T03:49:32.534Z,96.44
2022-11-17T03:50:33.205Z,96.37
2022-11-17T03:51:33.108Z,95.92
2022-11-17T03:52:32.725Z,96.12
2022-11-17T03:53:32.407Z,96.02
2022-11-17T03:54:32.293Z,96.02
2022-11-17T03:55:33.235Z,96.02
2022-11-17T03:56:32.271Z,96.23
2022-11-17T03:57:32.301Z,96.12
2022-11-17T03:58:32.221Z,96.33
2022-11-17T03:59:32.176Z,96.17
2022-11-17T04:00:32.142Z,95.96
2022-11-17T04:01:32.199Z,96.02
2022-11-17T04:02:32.197Z,96.17
2022-11-17T04:03:33.175Z,96.17
2022-11-17T04:04:32.224Z,95.96
2022-11-17T04:05:32.598Z,95.96
2022-11-17T04:06:32.093Z,96.17
2022-11-17T04:07:32.150Z,95.96
2022-11-17T04:08:32.034Z,95.71
2022-11-17T04:09:32.114Z,95.71
2022-11-17T04:10:32.046Z,95.71
2022-11-17T04:11:32.045Z,95.61
2022-11-17T04:12:33.139Z,95.75
2022-11-17T04:13:32.179Z,95.71
2022-11-17T04:14:32.026Z,95.92
2022-11-17T04:15:32.845Z,95.75
2022-11-17T04:16:32.746Z,95.54
2022-11-17T04:17:31.985Z,95.61
2022-11-17T04:18:33.068Z,95.54
2022-11-17T04:19:31.892Z,95.75
2022-11-17T04:20:31.912Z,95.96
2022-11-17T04:21:31.870Z,96.06
2022-11-17T04:22:31.905Z,95.96
2022-11-17T04:23:32.084Z,95.86
2022-11-17T04:24:31.853Z,95.75
2022-11-17T04:25:32.556Z,95.54
2022-11-17T04:26:31.856Z,95.75
2022-11-17T04:27:31.819Z,95.75
2022-11-17T04:28:31.835Z,95.96
2022-11-17T04:29:33.229Z,96.06
2022-11-17T04:30:31.808Z,96.17
2022-11-17T04:31:31.877Z,96.17
2022-11-17T04:32:31.957Z,96.06
2022-11-17T04:33:32.039Z,96.37
2022-11-17T04:34:31.711Z,96.27
2022-11-17T04:35:31.829Z,96.27
2022-11-17T04:36:31.725Z,96.27
2022-11-17T04:37:31.711Z,96.37
2022-11-17T04:38:31.678Z,96.06
2022-11-17T04:39:31.729Z,95.96
2022-11-17T04:40:31.735Z,96.17
2022-11-17T04:41:31.660Z,96.27
2022-11-17T04:42:31.617Z,96.17
2022-11-17T04:43:31.696Z,96.27
2022-11-17T04:44:32.623Z,96.27
2022-11-17T04:45:31.600Z,96.17
2022-11-17T04:46:31.568Z,96.27
2022-11-17T04:47:32.330Z,96.27
2022-11-17T04:48:32.749Z,96.17
2022-11-17T04:49:31.583Z,95.96
2022-11-17T04:50:31.567Z,95.96
2022-11-17T04:51:32.460Z,95.75
2022-11-17T04:52:31.488Z,95.75
2022-11-17T04:53:31.563Z,95.75
2022-11-17T04:54:31.798Z,95.65
2022-11-17T04:55:31.472Z,95.44
2022-11-17T04:56:31.450Z,95.44
2022-11-17T04:57:31.511Z,95.44
2022-11-17T04:58:31.455Z,95.44
2022-11-17T04:59:31.529Z,95.14
2022-11-17T05:00:31.588Z,95.34
2022-11-17T05:01:31.573Z,95.14
2022-11-17T05:02:32.488Z,95.03
2022-11-17T05:03:31.355Z,95.24
2022-11-17T05:04:31.404Z,95.24
2022-11-17T05:05:31.333Z,95.54
2022-11-17T05:06:31.333Z,95.34
2022-11-17T05:07:31.716Z,95.44
2022-11-17T05:08:31.341Z,95.34
2022-11-17T05:09:31.315Z,95.24
2022-11-17T05:10:31.299Z,95.34
2022-11-17T05:11:31.352Z,95.24
2022-11-17T05:12:31.305Z,95.34
2022-11-17T05:13:31.222Z,95.24
2022-11-17T05:14:31.212Z,95.14
2022-11-17T05:15:32.205Z,95.24
2022-11-17T05:16:31.842Z,95.34
2022-11-17T05:17:31.197Z,95.54
2022-11-17T05:18:31.158Z,95.75
2022-11-17T05:19:31.617Z,95.96
2022-11-17T05:20:31.249Z,95.75
2022-11-17T05:21:31.187Z,95.65
2022-11-17T05:22:31.336Z,96.06
2022-11-17T05:23:31.126Z,96.17
2022-11-17T05:24:31.078Z,95.96
2022-11-17T05:25:31.109Z,96.01
2022-11-17T05:26:32.048Z,96.01
2022-11-17T05:27:32.075Z,96.11
2022-11-17T05:28:31.057Z,96.21
2022-11-17T05:29:31.168Z,96.21
2022-11-17T05:30:31.039Z,96.11
2022-11-17T05:31:31.060Z,96.01
2022-11-17T05:32:31.818Z,96.31
2022-11-17T05:33:36.435Z,96.31
2022-11-17T05:34:31.953Z,96.11
2022-11-17T05:35:31.825Z,96.11
2022-11-17T05:36:30.961Z,96.11
2022-11-17T05:37:30.950Z,96.21
2022-11-17T05:38:30.930Z,96.31
2022-11-17T05:39:31.852Z,96.21
2022-11-17T05:40:30.989Z,96.42
2022-11-17T05:41:30.945Z,96.42
2022-11-17T05:42:31.657Z,96.42
2022-11-17T05:43:32.234Z,96.52
2022-11-17T05:44:31.026Z,96.42
2022-11-17T05:45:30.854Z,96.42
2022-11-17T05:46:30.830Z,96.42
2022-11-17T05:47:31.705Z,96.62
2022-11-17T05:48:30.809Z,96.52
2022-11-17T05:49:31.726Z,96.31
2022-11-17T05:50:30.788Z,96.31
2022-11-17T05:51:30.751Z,96.11
2022-11-17T05:52:31.726Z,95.90
2022-11-17T05:53:30.719Z,96.01
2022-11-17T05:54:31.531Z,96.11
2022-11-17T05:55:30.699Z,96.11
2022-11-17T05:56:30.691Z,96.31
2022-11-17T05:57:30.729Z,96.15
2022-11-17T05:58:30.692Z,96.15
2022-11-17T05:59:30.641Z,96.15
2022-11-17T06:00:30.634Z,96.15
2022-11-17T06:01:30.814Z,96.15
2022-11-17T06:02:30.651Z,96.05
2022-11-17T06:03:30.583Z,96.26
2022-11-17T06:04:30.677Z,96.36
2022-11-17T06:05:30.723Z,96.36
2022-11-17T06:06:30.597Z,96.26
2022-11-17T06:07:31.350Z,96.47
2022-11-17T06:08:30.550Z,96.26
2022-11-17T06:09:30.510Z,96.57
2022-11-17T06:10:30.534Z,96.36
2022-11-17T06:11:30.482Z,96.47
2022-11-17T06:12:30.479Z,96.36
2022-11-17T06:13:30.574Z,96.36
2022-11-17T06:14:30.595Z,96.26
2022-11-17T06:15:30.537Z,95.95
2022-11-17T06:16:30.440Z,96.05
2022-11-17T06:17:30.496Z,96.15
2022-11-17T06:18:30.684Z,95.95
2022-11-17T06:19:30.449Z,95.64
2022-11-17T06:20:30.378Z,95.53
2022-11-17T06:21:49.426Z,95.64
2022-11-17T06:22:31.354Z,95.84
2022-11-17T06:23:30.360Z,95.84
2022-11-17T06:24:30.409Z,95.95
2022-11-17T06:25:30.294Z,95.95
2022-11-17T06:26:30.346Z,95.95
2022-11-17T06:27:31.447Z,95.84
2022-11-17T06:28:30.478Z,95.74
2022-11-17T06:29:30.268Z,95.84
2022-11-17T06:30:30.263Z,96.15
2022-11-17T06:31:30.247Z,95.95
2022-11-17T06:32:30.237Z,95.74
2022-11-17T06:33:30.209Z,95.84
2022-11-17T06:34:30.214Z,95.78
2022-11-17T06:35:30.230Z,95.64
2022-11-17T06:36:30.177Z,95.64
2022-11-17T06:37:30.207Z,95.64
2022-11-17T06:38:30.167Z,95.32
2022-11-17T06:39:30.145Z,95.43
2022-11-17T06:40:30.118Z,95.53
2022-11-17T06:41:30.126Z,95.53
2022-11-17T06:42:30.256Z,95.43
2022-11-17T06:43:30.093Z,95.32
2022-11-17T06:44:30.051Z,95.43
2022-11-17T06:45:31.248Z,95.57
2022-11-17T06:46:30.028Z,95.89
2022-11-17T06:47:30.018Z,95.68
2022-11-17T06:48:30.065Z,95.89
2022-11-17T06:49:30.016Z,95.99
2022-11-17T06:50:30.006Z,95.89
2022-11-17T06:51:30.021Z,95.89
2022-11-17T06:52:30.011Z,95.99
2022-11-17T06:53:29.979Z,95.99
2022-11-17T06:54:29.969Z,95.99
2022-11-17T06:55:29.907Z,95.99
2022-11-17T06:56:29.917Z,95.78
2022-11-17T06:57:29.952Z,95.47
2022-11-17T06:58:29.930Z,95.47
2022-11-17T06:59:29.875Z,95.37
2022-11-17T07:00:30.117Z,95.37
2022-11-17T07:01:29.873Z,95.47
2022-11-17T07:02:29.882Z,95.16
2022-11-17T07:03:29.877Z,95.26
2022-11-17T07:04:29.863Z,95.26
2022-11-17T07:05:29.851Z,95.06
2022-11-17T07:06:29.815Z,95.16
2022-11-17T07:07:29.848Z,95.16
2022-11-17T07:08:29.784Z,95.37
2022-11-17T07:09:29.759Z,95.37
2022-11-17T07:10:29.755Z,95.47
2022-11-17T07:11:29.792Z,95.37
2022-11-17T07:12:29.693Z,95.47
2022-11-17T07:13:29.748Z,95.47
2022-11-17T07:14:29.733Z,95.57
2022-11-17T07:15:29.699Z,95.47
2022-11-17T07:16:29.677Z,95.26
2022-11-17T07:17:29.708Z,95.06
2022-11-17T07:18:29.623Z,95.37
2022-11-17T07:19:29.676Z,95.37
2022-11-17T07:20:29.652Z,95.16
2022-11-17T07:21:29.594Z,95.16
2022-11-17T07:22:29.604Z,95.26
2022-11-17T07:23:29.994Z,95.16
2022-11-17T07:24:29.566Z,95.26
2022-11-17T07:25:29.591Z,95.26
2022-11-17T07:26:29.577Z,95.47
2022-11-17T07:27:29.510Z,95.57
2022-11-17T07:28:29.595Z,95.37
2022-11-17T07:29:29.526Z,95.47
2022-11-17T07:30:29.558Z,95.37
2022-11-17T07:31:29.528Z,95.26
2022-11-17T07:32:29.456Z,95.26
2022-11-17T07:33:29.518Z,95.26
2022-11-17T07:34:29.464Z,95.47
2022-11-17T07:35:29.469Z,95.78
2022-11-17T07:36:29.470Z,95.16
2022-11-17T07:37:29.390Z,95.37
2022-11-17T07:38:29.389Z,95.26
2022-11-17T07:39:29.387Z,95.37
2022-11-17T07:40:29.342Z,95.26
2022-11-17T07:41:29.363Z,95.37
2022-11-17T07:42:29.318Z,95.57
2022-11-17T07:43:29.308Z,95.47
2022-11-17T07:44:29.318Z,95.47
2022-11-17T07:45:31.906Z,95.57
2022-11-17T07:46:29.307Z,95.68
2022-11-17T07:47:29.424Z,95.57
2022-11-17T07:48:29.263Z,95.89
2022-11-17T07:49:29.244Z,95.57
2022-11-17T07:50:30.134Z,95.47
2022-11-17T07:51:29.325Z,95.37
2022-11-17T07:52:29.216Z,95.47
2022-11-17T07:53:29.199Z,95.57
2022-11-17T07:54:29.190Z,95.89
2022-11-17T07:55:29.168Z,95.68
2022-11-17T07:56:29.169Z,95.68
2022-11-17T07:57:29.180Z,95.68
2022-11-17T07:58:29.148Z,95.99
2022-11-17T07:59:29.121Z,96.09
2022-11-17T08:00:29.129Z,96.09
2022-11-17T08:01:29.144Z,96.09
2022-11-17T08:02:29.172Z,96.30
2022-11-17T08:03:29.125Z,95.99
2022-11-17T08:04:29.036Z,96.30
2022-11-17T08:05:29.267Z,96.30
2022-11-17T08:06:30.016Z,96.30
2022-11-17T08:07:29.160Z,96.41
2022-11-17T08:08:29.019Z,96.61
2022-11-17T08:09:29.028Z,96.51
2022-11-17T08:10:28.999Z,96.72
2022-11-17T08:11:28.979Z,96.61
2022-11-17T08:12:28.950Z,96.72
2022-11-17T08:13:29.050Z,96.72
2022-11-17T08:14:28.921Z,96.82
2022-11-17T08:15:28.930Z,97.13
2022-11-17T08:16:28.909Z,96.92
2022-11-17T08:17:28.880Z,96.92
2022-11-17T08:18:29.875Z,97.03
2022-11-17T08:19:28.850Z,97.24
2022-11-17T08:20:28.855Z,97.34
2022-11-17T08:21:28.837Z,97.55
2022-11-17T08:22:28.818Z,97.86
2022-11-17T08:23:28.866Z,97.86
2022-11-17T08:24:28.795Z,97.90
2022-11-17T08:25:28.821Z,98.17
2022-11-17T08:26:28.767Z,98.27
2022-11-17T08:27:28.774Z,98.38
2022-11-17T08:28:28.810Z,98.38
2022-11-17T08:29:28.780Z,98.38
2022-11-17T08:30:28.774Z,98.32
2022-11-17T08:31:28.794Z,98.17
2022-11-17T08:32:29.049Z,98.38
2022-11-17T08:33:28.867Z,98.17
2022-11-17T08:34:28.674Z,98.17
2022-11-17T08:35:32.980Z,98.17
2022-11-17T08:36:29.675Z,98.27
2022-11-17T08:37:28.658Z,98.48
2022-11-17T08:38:28.663Z,98.48
2022-11-17T08:39:28.594Z,98.48
2022-11-17T08:40:28.615Z,98.48
2022-11-17T08:41:28.618Z,98.38
2022-11-17T08:42:28.594Z,98.38
2022-11-17T08:43:28.583Z,98.48
2022-11-17T08:44:28.606Z,98.58
2022-11-17T08:45:28.572Z,98.48
2022-11-17T08:46:28.586Z,98.48
2022-11-17T08:47:28.493Z,98.69
2022-11-17T08:48:28.501Z,98.79
2022-11-17T08:49:28.526Z,98.90
2022-11-17T08:50:28.458Z,99.00
2022-11-17T08:51:28.462Z,99.10
2022-11-17T08:52:28.503Z,99.21
2022-11-17T08:53:28.443Z,99.31
2022-11-17T08:54:28.426Z,99.41
2022-11-17T08:55:28.445Z,99.52
2022-11-17T08:56:28.378Z,99.62
2022-11-17T08:57:28.405Z,99.62
2022-11-17T08:58:29.237Z,99.72
2022-11-17T08:59:28.422Z,99.62
2022-11-17T09:00:28.333Z,99.77
2022-11-17T09:01:28.409Z,99.82
2022-11-17T09:02:28.342Z,99.82
2022-11-17T09:03:28.363Z,99.93
2022-11-17T09:04:28.357Z,99.72
2022-11-17T09:05:29.079Z,99.72
2022-11-17T09:06:28.287Z,99.82
2022-11-17T09:07:32.095Z,99.93
2022-11-17T09:08:56.433Z,99.93
2022-11-17T09:09:29.345Z,99.82
2022-11-17T09:10:28.269Z,99.82
2022-11-17T09:11:28.215Z,99.93
2022-11-17T09:12:28.225Z,99.93
2022-11-17T09:13:28.757Z,99.99
2022-11-17T09:14:28.225Z,99.99
2022-11-17T09:15:28.215Z,99.93
2022-11-17T09:16:28.149Z,99.99
2022-11-17T09:17:28.117Z,99.99
2022-11-17T09:18:28.162Z,99.99
2022-11-17T09:19:28.146Z,99.99
2022-11-17T09:20:28.255Z,99.99
2022-11-17T09:21:28.088Z,99.99
2022-11-17T09:22:28.050Z,99.99
2022-11-17T09:23:28.039Z,99.99
2022-11-17T09:24:28.320Z,99.99
2022-11-17T09:25:28.079Z,99.99
2022-11-17T09:26:28.031Z,99.99
2022-11-17T09:27:28.019Z,99.99
2022-11-17T09:28:28.523Z,99.99
2022-11-17T09:29:28.138Z,99.99
2022-11-17T09:30:27.994Z,99.99
2022-11-17T09:31:28.050Z,99.99
2022-11-17T09:32:27.967Z,99.99
2022-11-17T09:33:27.977Z,99.99
2022-11-17T09:34:27.935Z,99.99
2022-11-17T09:35:27.927Z,99.99
2022-11-17T09:36:27.932Z,99.99
2022-11-17T09:37:27.877Z,99.99
2022-11-17T09:38:27.878Z,99.99
2022-11-17T09:39:27.836Z,99.99
2022-11-17T09:40:30.759Z,99.99
2022-11-17T09:41:28.839Z,99.99
2022-11-17T09:42:27.811Z,99.99
2022-11-17T09:43:27.803Z,99.99
2022-11-17T09:44:27.791Z,99.99
2022-11-17T09:45:27.782Z,99.99
2022-11-17T09:46:27.762Z,99.99
2022-11-17T09:47:27.751Z,99.99
2022-11-17T09:48:40.836Z,99.99
2022-11-17T09:49:28.733Z,99.99
2022-11-17T09:50:28.852Z,99.99
2022-11-17T09:51:27.681Z,99.99
2022-11-17T09:52:27.705Z,99.99
2022-11-17T09:53:27.662Z,99.99
2022-11-17T09:54:27.662Z,99.99
2022-11-17T09:55:33.744Z,99.99
2022-11-17T09:56:28.663Z,99.99
2022-11-17T09:57:27.695Z,99.99
2022-11-17T09:58:27.625Z,99.99
2022-11-17T09:59:27.574Z,99.99
2022-11-17T10:00:28.395Z,99.99
2022-11-17T10:01:27.594Z,99.99
2022-11-17T10:02:27.662Z,99.99
2022-11-17T10:03:27.602Z,99.99
2022-11-17T10:04:27.574Z,99.99
2022-11-17T10:05:27.593Z,99.99
2022-11-17T10:06:27.499Z,99.99
2022-11-17T10:07:27.531Z,99.99
2022-11-17T10:08:27.563Z,99.99
2022-11-17T10:09:27.507Z,99.99
2022-11-17T10:10:27.457Z,99.99
2022-11-17T10:11:27.447Z,99.99
2022-11-17T10:12:27.430Z,99.99
2022-11-17T10:13:27.475Z,99.99
2022-11-17T10:14:27.407Z,99.99
2022-11-17T10:15:27.536Z,99.99
2022-11-17T10:16:27.414Z,99.99
2022-11-17T10:17:27.547Z,99.99
2022-11-17T10:18:27.379Z,99.99
2022-11-17T10:19:27.397Z,99.99
2022-11-17T10:20:27.479Z,99.99
2022-11-17T10:21:27.327Z,99.99
2022-11-17T10:22:28.046Z,99.99
2022-11-17T10:23:27.282Z,99.99
2022-11-17T10:24:27.336Z,99.99
2022-11-17T10:25:28.055Z,99.99
2022-11-17T10:26:27.255Z,99.99
2022-11-17T10:27:27.250Z,99.99
2022-11-17T10:28:27.918Z,99.99
2022-11-17T10:29:27.253Z,99.99
2022-11-17T10:30:27.300Z,99.99
2022-11-17T10:31:27.175Z,99.99
2022-11-17T10:32:27.173Z,99.99
2022-11-17T10:33:27.144Z,99.99
2022-11-17T10:34:31.048Z,99.99
2022-11-17T10:35:28.177Z,99.99
2022-11-17T10:36:27.136Z,99.99
2022-11-17T10:37:27.148Z,99.99
2022-11-17T10:38:27.787Z,99.99
2022-11-17T10:39:27.143Z,99.99
2022-11-17T10:40:28.147Z,99.99
2022-11-17T10:41:27.079Z,99.99
2022-11-17T10:42:27.080Z,99.99
2022-11-17T10:43:27.062Z,99.99
2022-11-17T10:44:27.056Z,99.99
2022-11-17T10:45:27.051Z,99.99
2022-11-17T10:46:30.989Z,99.99
2022-11-17T10:47:28.017Z,99.99
2022-11-17T10:48:27.032Z,99.99
2022-11-17T10:49:26.995Z,99.99
2022-11-17T10:50:27.001Z,99.99
2022-11-17T10:51:26.945Z,99.99
2022-11-17T10:52:26.943Z,99.99
2022-11-17T10:53:26.923Z,99.99
2022-11-17T10:54:26.870Z,99.99
2022-11-17T10:55:27.735Z,99.99
2022-11-17T10:56:26.884Z,99.99
2022-11-17T10:57:26.892Z,99.99
2022-11-17T10:58:26.874Z,99.99
2022-11-17T10:59:26.831Z,99.99
2022-11-17T11:00:26.972Z,99.99
2022-11-17T11:01:26.914Z,99.99
2022-11-17T11:02:26.807Z,99.99
2022-11-17T11:03:26.788Z,99.99
2022-11-17T11:04:27.897Z,99.99
2022-11-17T11:05:26.825Z,99.99
2022-11-17T11:06:27.342Z,99.99
2022-11-17T11:07:26.822Z,99.99
2022-11-17T11:08:26.703Z,99.99
2022-11-17T11:09:26.705Z,99.99
2022-11-17T11:10:27.834Z,99.99
2022-11-17T11:11:26.694Z,99.99
2022-11-17T11:12:27.635Z,99.99
2022-11-17T11:13:26.664Z,99.99
2022-11-17T11:14:26.666Z,99.99
2022-11-17T11:15:26.636Z,99.99
2022-11-17T11:16:26.627Z,99.99
2022-11-17T11:17:26.615Z,99.99
2022-11-17T11:18:26.586Z,99.99
2022-11-17T11:19:26.571Z,99.99
2022-11-17T11:20:26.608Z,99.99
2022-11-17T11:21:26.584Z,99.99
2022-11-17T11:22:26.544Z,99.99
2022-11-17T11:23:26.539Z,99.99
2022-11-17T11:24:26.527Z,99.99
2022-11-17T11:25:26.514Z,99.99
2022-11-17T11:26:26.561Z,99.99
2022-11-17T11:27:26.508Z,99.99
2022-11-17T11:28:26.505Z,99.99
2022-11-17T11:29:26.426Z,99.99
2022-11-17T11:30:26.455Z,99.99
2022-11-17T11:31:26.518Z,99.99
2022-11-17T11:32:26.478Z,99.99
2022-11-17T11:33:26.415Z,99.99
2022-11-17T11:34:26.395Z,99.99
2022-11-17T11:35:26.590Z,99.99
2022-11-17T11:36:26.417Z,99.99
2022-11-17T11:37:26.364Z,99.99
2022-11-17T11:38:26.376Z,99.99
2022-11-17T11:39:26.535Z,99.99
2022-11-17T11:40:26.316Z,99.99
2022-11-17T11:41:26.366Z,99.99
2022-11-17T11:42:26.397Z,99.99
2022-11-17T11:43:26.284Z,99.99
2022-11-17T11:44:26.257Z,99.99
2022-11-17T11:45:26.295Z,99.99
2022-11-17T11:46:26.222Z,99.99
2022-11-17T11:47:26.264Z,99.99
2022-11-17T11:48:26.216Z,99.99
2022-11-17T11:49:26.199Z,99.99
2022-11-17T11:50:26.221Z,99.99
2022-11-17T11:51:26.962Z,99.99
2022-11-17T11:52:26.161Z,99.99
2022-11-17T11:53:26.182Z,99.99
2022-11-17T11:54:26.212Z,99.99
2022-11-17T11:55:27.099Z,99.99
2022-11-17T11:56:26.139Z,99.99
2022-11-17T11:57:26.434Z,99.99
2022-11-17T11:58:26.121Z,99.99
2022-11-17T11:59:26.064Z,99.99
2022-11-17T12:00:26.822Z,99.99
2022-11-17T12:01:26.199Z,99.99
2022-11-17T12:02:26.187Z,99.99
2022-11-17T12:03:26.126Z,99.99
2022-11-17T12:04:26.002Z,99.99
2022-11-17T12:05:27.152Z,99.99
2022-11-17T12:06:25.984Z,99.99
2022-11-17T12:07:26.034Z,99.99
2022-11-17T12:08:26.863Z,99.99
2022-11-17T12:09:25.930Z,99.99
2022-11-17T12:10:26.382Z,99.99
2022-11-17T12:11:25.968Z,99.99
2022-11-17T12:12:25.921Z,99.99
2022-11-17T12:13:25.971Z,99.99
2022-11-17T12:14:25.873Z,99.99
2022-11-17T12:15:26.582Z,99.99
2022-11-17T12:16:26.775Z,99.99
2022-11-17T12:17:25.924Z,99.99
2022-11-17T12:18:25.865Z,99.99
2022-11-17T12:19:25.804Z,99.99
2022-11-17T12:20:25.872Z,99.99
2022-11-17T12:21:25.775Z,99.99
2022-11-17T12:22:25.782Z,99.99
2022-11-17T12:23:25.794Z,99.90
2022-11-17T12:24:25.779Z,99.90
2022-11-17T12:25:25.764Z,99.99
2022-11-17T12:26:25.739Z,99.99
2022-11-17T12:27:25.746Z,99.99
2022-11-17T12:28:25.683Z,99.99
2022-11-17T12:29:25.767Z,99.99
2022-11-17T12:30:26.633Z,99.99
2022-11-17T12:31:25.699Z,99.99
2022-11-17T12:32:25.675Z,99.99
2022-11-17T12:33:25.766Z,99.99
2022-11-17T12:34:25.670Z,99.99
2022-11-17T12:35:25.686Z,99.99
2022-11-17T12:36:30.482Z,99.99
2022-11-17T12:37:26.710Z,99.99
2022-11-17T12:38:25.641Z,99.99
2022-11-17T12:39:25.632Z,99.99
2022-11-17T12:40:26.351Z,99.99
2022-11-17T12:41:25.655Z,99.99
2022-11-17T12:42:26.668Z,99.99
2022-11-17T12:43:25.490Z,99.99
2022-11-17T12:44:25.555Z,99.99
2022-11-17T12:45:26.392Z,99.99
2022-11-17T12:46:26.289Z,99.99
2022-11-17T12:47:25.514Z,99.99
2022-11-17T12:48:33.982Z,99.99
2022-11-17T12:49:26.460Z,99.99
2022-11-17T12:50:25.431Z,99.99
2022-11-17T12:51:25.500Z,99.99
2022-11-17T12:52:26.377Z,99.99